الصفحة الرئيسية
METAR-TAF:

METAR-TAF

مطار :

مطار نوفوسيبيرسك

نوفوسيبيرسك, روسيا

دائرة عرض: 55-01N, خط طول: 082-38E, ارتفاع: 111 متر

مراقبة الطقس الحالي

تاريخ ووقت الإصدار 29 دقيقة قبل الساعة 17:30UTC
ريح 4 عقدة من الجنوب الشرقي
درجة الحرارة 0°درجة مئوية
الرطوبة 59%
ضغط 1019 hPa
الرؤية 10 كم أو أكثر

METAR: UNNT 011730Z 13002MPS 9999 NSC 00/M07 Q1019 R07/150060 R16/090070 NOSIG RMK QFE754/1005

زمن: 00:59 (17:59 UTC)

توقعات

تاريخ ووقت الإصدار 59 دقيقة قبل الساعة 17:00UTC
التوقعات صالحة من01 الساعة 18 UTC إلى 02 الساعة 18 UTC
ريح 6 عقدة من الشرق/الجنوب الشرقي
الرؤية 10 كم أو أكثر
الغيوم لا تقل 1500 م ولا وجود لمزنة ركامية السحاب الأسود
أصبح
من 02 الساعة 02 UTC إلى 02 الساعة 05 UTC
ريح 16 عقدة من الجنوب تتزايد حتى 29 عقدة

TAF: UNNT 011700Z 0118/0218 12003MPS CAVOK BECMG 0202/0205 18008G15MPS

أرصاد الطقس والتوقعات من أكثر من 4000 مطار (تقارير الطقس للمطار METAR والتنبؤ بالطقس بالمطارTAF).

المحطات المتاحة هي النقط الصفراء والحمراء على الخريطة.

حرك المؤشر فوق النقطة لمعرفة اسم المحطة.

ثم انقر لمعرفة أرصاد وتوقعات الطقس.

لتغيير الخارطة: اضغط على الأزرار الخضراء مع رمز الصليب الأسود للتكبير. على الزر الأخضر مع شرطة للتصغير، أو على الأسهم الخضراء للخرائط المجاورة.


METAR-TAF: